Time;durP1;ratioP1;P1;durP2;ratioP2;P2;SDS_P1;SDS_P2;PMS_P1;PMS_P2;Temp;Humidity;BMP_temperature;BMP_pressure;BME280_temperature;BME280_humidity;BME280_pressure;Samples;Min_cycle;Max_cycle;Signal;HPM_P1;HPM_P2
2024/02/24 00:01:02;;;;;;;2.57;1.60;;;6.10;99.90;;;;;;4976499;28;20429;-69
2024/02/24 00:03:28;;;;;;;2.60;1.43;;;6.10;99.90;;;;;;4989712;28;20182;-70
2024/02/24 00:05:53;;;;;;;2.70;1.60;;;6.10;99.90;;;;;;4996234;28;20252;-70
2024/02/24 00:08:19;;;;;;;3.00;2.13;;;6.30;99.90;;;;;;4995886;28;20193;-72
2024/02/24 00:10:45;;;;;;;3.37;1.67;;;6.30;99.90;;;;;;4996054;28;20514;-71
2024/02/24 00:13:10;;;;;;;2.80;1.70;;;6.30;99.90;;;;;;4985094;28;20557;-72
2024/02/24 00:15:36;;;;;;;5.03;2.77;;;6.30;99.90;;;;;;4976423;28;20545;-71
2024/02/24 00:18:02;;;;;;;3.37;2.30;;;6.40;99.90;;;;;;4976481;28;20258;-69
2024/02/24 00:20:28;;;;;;;2.87;2.20;;;6.60;99.90;;;;;;4976220;28;20176;-71
2024/02/24 00:22:53;;;;;;;2.40;1.80;;;6.60;99.90;;;;;;4984454;28;20494;-71
2024/02/24 00:25:19;;;;;;;2.60;1.93;;;6.70;99.90;;;;;;4995455;28;20230;-71
2024/02/24 00:27:44;;;;;;;2.53;1.90;;;6.70;99.90;;;;;;4995737;28;20178;-71
2024/02/24 00:30:10;;;;;;;3.40;2.33;;;6.80;99.90;;;;;;4994411;28;20173;-70
2024/02/24 00:32:37;;;;;;;5.40;2.40;;;6.80;99.90;;;;;;4990952;28;20212;-72
2024/02/24 00:35:02;;;;;;;1.97;1.63;;;6.80;99.90;;;;;;4995653;28;20399;-71
2024/02/24 00:37:28;;;;;;;3.50;2.00;;;6.80;99.90;;;;;;4995508;28;20804;-72
2024/02/24 00:39:54;;;;;;;2.83;1.90;;;6.70;99.90;;;;;;4995392;28;20644;-72
2024/02/24 00:42:19;;;;;;;3.10;2.37;;;6.50;99.90;;;;;;4991707;28;20567;-72
2024/02/24 00:44:45;;;;;;;3.10;2.10;;;6.50;99.90;;;;;;4975963;28;20225;-72
2024/02/24 00:47:10;;;;;;;3.33;2.03;;;6.60;99.90;;;;;;4975972;28;20257;-71
2024/02/24 00:49:36;;;;;;;5.73;2.10;;;6.50;99.90;;;;;;4975591;28;20179;-71
2024/02/24 00:52:01;;;;;;;3.20;1.73;;;6.50;99.90;;;;;;4976567;28;20580;-71
2024/02/24 00:54:27;;;;;;;2.43;2.10;;;6.40;99.90;;;;;;4995393;28;20546;-70
2024/02/24 00:56:53;;;;;;;3.10;1.80;;;6.40;99.90;;;;;;4993954;28;20173;-71
2024/02/24 00:59:18;;;;;;;2.80;2.00;;;6.40;99.90;;;;;;4995155;28;20225;-71
2024/02/24 01:01:44;;;;;;;6.73;2.33;;;6.20;99.90;;;;;;4995057;28;20722;-71
2024/02/24 01:04:09;;;;;;;3.43;2.10;;;6.10;99.90;;;;;;4976976;28;20702;-70
2024/02/24 01:06:35;;;;;;;1.80;1.67;;;6.20;99.90;;;;;;4975732;28;20525;-71
2024/02/24 01:09:00;;;;;;;2.50;2.07;;;6.20;99.90;;;;;;4974028;28;20174;-72
2024/02/24 01:11:26;;;;;;;3.40;1.87;;;6.20;99.90;;;;;;4975339;28;20201;-70
2024/02/24 01:13:53;;;;;;;3.13;1.93;;;6.10;99.90;;;;;;4990582;28;20170;-71
2024/02/24 01:16:19;;;;;;;3.63;2.40;;;6.10;99.90;;;;;;4994702;28;20221;-71
2024/02/24 01:18:44;;;;;;;2.67;2.20;;;6.00;99.90;;;;;;4993774;28;20416;-71
2024/02/24 01:21:10;;;;;;;2.50;1.87;;;5.90;99.90;;;;;;4994910;28;20233;-71
2024/02/24 01:23:38;;;;;;;4.27;2.30;;;5.80;99.90;;;;;;4981365;28;20175;-71
2024/02/24 01:26:03;;;;;;;2.40;2.10;;;5.80;99.90;;;;;;4975348;28;20626;-71
2024/02/24 01:28:30;;;;;;;5.70;2.30;;;5.70;99.90;;;;;;4975586;28;20416;-70
2024/02/24 01:30:56;;;;;;;3.97;2.27;;;5.80;99.90;;;;;;4993746;28;20195;-71
2024/02/24 01:33:21;;;;;;;4.07;2.07;;;5.80;99.90;;;;;;4994367;28;20453;-71
2024/02/24 01:35:47;;;;;;;2.63;1.70;;;5.80;99.90;;;;;;4994446;28;20162;-72
2024/02/24 01:38:12;;;;;;;4.70;2.60;;;5.80;99.90;;;;;;4993139;28;20164;-71
2024/02/24 01:40:38;;;;;;;2.80;1.80;;;5.90;99.90;;;;;;4994445;28;20178;-71
2024/02/24 01:43:29;;;;;;;2.97;1.90;;;5.80;99.90;;;;;;4994472;28;20180;-71
2024/02/24 01:45:56;;;;;;;3.40;1.77;;;5.90;99.90;;;;;;4994558;28;20157;-71
2024/02/24 01:48:22;;;;;;;3.27;1.97;;;6.00;99.90;;;;;;4993921;28;20438;-71
2024/02/24 01:50:52;;;;;;;3.13;1.70;;;6.00;99.90;;;;;;4994298;28;20479;-71
2024/02/24 01:53:20;;;;;;;2.77;2.10;;;6.10;99.90;;;;;;4982387;28;20457;-72
2024/02/24 01:55:46;;;;;;;3.10;1.90;;;6.10;99.90;;;;;;4977267;28;20461;-71
2024/02/24 01:58:12;;;;;;;4.03;2.10;;;6.40;99.90;;;;;;4974943;28;20466;-71
2024/02/24 02:00:38;;;;;;;3.10;1.63;;;6.60;99.90;;;;;;4974742;28;20404;-69
2024/02/24 02:03:04;;;;;;;1.50;1.40;;;6.70;99.90;;;;;;4981590;28;20422;-71
2024/02/24 02:05:30;;;;;;;2.77;2.03;;;6.80;99.90;;;;;;4994789;28;20677;-71
2024/02/24 02:07:55;;;;;;;1.90;1.50;;;6.90;99.90;;;;;;4992826;28;20446;-72
2024/02/24 02:10:21;;;;;;;3.20;2.30;;;6.90;99.90;;;;;;4994239;28;20172;-72
2024/02/24 02:12:47;;;;;;;2.20;1.70;;;6.80;99.90;;;;;;4987895;28;20202;-72
2024/02/24 02:15:12;;;;;;;2.40;1.90;;;6.80;99.90;;;;;;4974290;28;20173;-72
2024/02/24 02:17:38;;;;;;;2.40;1.53;;;6.80;99.90;;;;;;4975112;28;20202;-71
2024/02/24 02:20:05;;;;;;;2.93;2.00;;;6.90;99.90;;;;;;4974327;28;20545;-71
2024/02/24 02:22:31;;;;;;;2.80;1.70;;;6.90;99.90;;;;;;4977733;28;20444;-71
2024/02/24 02:24:57;;;;;;;4.70;2.00;;;6.90;99.90;;;;;;4993966;28;20410;-71
2024/02/24 02:27:23;;;;;;;4.07;1.80;;;6.90;99.90;;;;;;4992618;28;20422;-70
2024/02/24 02:29:48;;;;;;;2.07;1.83;;;6.90;99.90;;;;;;4993695;28;20206;-71
2024/02/24 02:32:14;;;;;;;2.07;1.43;;;7.00;99.90;;;;;;4992098;28;20693;-71
2024/02/24 02:34:39;;;;;;;2.70;1.60;;;6.90;99.90;;;;;;4974481;28;20167;-72
2024/02/24 02:37:05;;;;;;;2.70;1.60;;;6.90;99.90;;;;;;4991420;28;20220;-71
2024/02/24 02:39:31;;;;;;;2.50;1.77;;;6.80;99.90;;;;;;4994165;28;20171;-71
2024/02/24 02:41:57;;;;;;;2.80;1.37;;;6.70;99.90;;;;;;4993857;28;20268;-71
2024/02/24 02:44:23;;;;;;;1.90;1.30;;;6.50;99.90;;;;;;4975576;28;20941;-71
2024/02/24 02:46:49;;;;;;;1.80;1.23;;;6.50;99.90;;;;;;4973289;28;20541;-71
2024/02/24 02:49:16;;;;;;;1.30;1.03;;;6.40;99.90;;;;;;4975037;28;20469;-71
2024/02/24 02:51:41;;;;;;;2.83;1.37;;;6.50;99.90;;;;;;4975025;28;20465;-71
2024/02/24 02:54:07;;;;;;;1.53;1.17;;;6.50;99.90;;;;;;4990485;28;20778;-72
2024/02/24 02:56:33;;;;;;;1.50;0.90;;;6.40;99.90;;;;;;4996259;28;20585;-71
2024/02/24 02:58:58;;;;;;;2.37;1.30;;;6.30;99.90;;;;;;5002414;28;20167;-71
2024/02/24 03:01:24;;;;;;;1.50;1.10;;;6.30;99.90;;;;;;5002989;28;20195;-72
2024/02/24 03:03:49;;;;;;;1.30;1.00;;;6.40;99.90;;;;;;4991145;28;20174;-72
2024/02/24 03:06:17;;;;;;;1.20;1.10;;;6.40;99.90;;;;;;4985864;28;20168;-72
2024/02/24 03:08:43;;;;;;;3.23;1.13;;;6.50;99.90;;;;;;4988146;28;20552;-72
2024/02/24 03:11:15;;;;;;;2.47;0.93;;;6.40;99.90;;;;;;4989572;28;20481;-72
2024/02/24 03:13:40;;;;;;;1.37;1.27;;;6.40;99.90;;;;;;5000403;28;20193;-71
2024/02/24 03:16:06;;;;;;;1.20;1.03;;;6.40;99.90;;;;;;5006827;28;20437;-70
2024/02/24 03:18:32;;;;;;;1.23;1.00;;;6.40;99.90;;;;;;5008080;28;20181;-71
2024/02/24 03:20:57;;;;;;;1.37;0.90;;;6.50;99.90;;;;;;5006288;28;20213;-71
2024/02/24 03:23:23;;;;;;;3.30;1.37;;;6.50;99.90;;;;;;4997253;28;20206;-72
2024/02/24 03:25:48;;;;;;;2.00;1.10;;;6.50;99.90;;;;;;4987076;28;20176;-70
2024/02/24 03:28:14;;;;;;;1.37;1.00;;;6.50;99.90;;;;;;4978372;28;20284;-70
2024/02/24 03:30:40;;;;;;;1.00;0.80;;;6.50;99.90;;;;;;4973534;28;20182;-72
2024/02/24 03:33:06;;;;;;;1.50;1.00;;;6.50;99.90;;;;;;4980476;28;20444;-70
2024/02/24 03:35:31;;;;;;;1.10;0.80;;;6.60;99.90;;;;;;4992967;28;20175;-71
2024/02/24 03:37:57;;;;;;;1.87;1.10;;;6.70;99.90;;;;;;4992410;28;20175;-71
2024/02/24 03:40:22;;;;;;;1.73;1.07;;;6.50;99.90;;;;;;4992965;28;20169;-71
2024/02/24 03:42:48;;;;;;;1.30;1.07;;;6.50;99.90;;;;;;4992565;28;20222;-70
2024/02/24 03:45:14;;;;;;;1.20;0.90;;;6.50;99.90;;;;;;4992777;28;20176;-70
2024/02/24 03:47:39;;;;;;;1.13;0.77;;;6.40;99.90;;;;;;4992713;28;20178;-70
2024/02/24 03:50:06;;;;;;;1.37;0.87;;;6.40;99.90;;;;;;4992505;28;20169;-71
2024/02/24 03:52:31;;;;;;;2.20;1.00;;;6.20;99.90;;;;;;4989943;28;20197;-71
2024/02/24 03:54:57;;;;;;;1.30;0.90;;;6.20;99.90;;;;;;4992970;28;20855;-71
2024/02/24 03:57:22;;;;;;;0.90;0.70;;;6.10;99.90;;;;;;4992740;28;20185;-71
2024/02/24 03:59:48;;;;;;;1.43;0.60;;;6.10;99.90;;;;;;4994801;28;20201;-71
2024/02/24 04:02:13;;;;;;;1.03;0.87;;;6.10;99.90;;;;;;4996456;28;20552;-71
2024/02/24 04:04:39;;;;;;;1.30;0.83;;;6.10;99.90;;;;;;4976660;28;20183;-71
2024/02/24 04:07:05;;;;;;;4.50;1.77;;;6.00;99.90;;;;;;4976523;28;20706;-70
2024/02/24 04:09:30;;;;;;;1.40;0.80;;;5.90;99.90;;;;;;4976699;28;20180;-71
2024/02/24 04:11:56;;;;;;;1.40;1.00;;;6.00;99.90;;;;;;4976462;28;20464;-70
2024/02/24 04:14:22;;;;;;;1.50;1.00;;;6.00;99.90;;;;;;4993215;28;20238;-70
2024/02/24 04:16:47;;;;;;;2.50;0.90;;;6.10;99.90;;;;;;4995767;28;20324;-71
2024/02/24 04:19:13;;;;;;;1.10;0.80;;;6.00;99.90;;;;;;4995965;28;20174;-72
2024/02/24 04:21:38;;;;;;;1.30;1.10;;;6.00;99.90;;;;;;4995725;28;20204;-71
2024/02/24 04:24:05;;;;;;;2.80;1.07;;;6.10;99.90;;;;;;4981506;28;20196;-71
2024/02/24 04:26:30;;;;;;;1.93;1.00;;;6.10;99.90;;;;;;4976688;28;20204;-69
2024/02/24 04:28:56;;;;;;;2.73;1.20;;;6.10;99.90;;;;;;4976097;28;20831;-70
2024/02/24 04:31:22;;;;;;;1.10;1.00;;;6.00;99.90;;;;;;4975938;28;20253;-71
2024/02/24 04:33:48;;;;;;;1.37;1.10;;;6.00;99.90;;;;;;4988031;28;20452;-71
2024/02/24 04:36:13;;;;;;;1.10;0.80;;;6.10;99.90;;;;;;4983355;28;20234;-71
2024/02/24 04:38:41;;;;;;;1.13;0.87;;;6.20;99.90;;;;;;4976045;28;20169;-71
2024/02/24 04:41:08;;;;;;;1.37;0.97;;;6.10;99.90;;;;;;4976297;28;20217;-70
2024/02/24 04:43:34;;;;;;;1.00;0.80;;;6.20;99.90;;;;;;4985620;28;20411;-70
2024/02/24 04:45:59;;;;;;;1.13;0.70;;;6.30;99.90;;;;;;4995222;28;20456;-72
2024/02/24 04:48:25;;;;;;;2.77;1.40;;;6.30;99.90;;;;;;4995146;28;20175;-71
2024/02/24 04:50:50;;;;;;;1.63;1.00;;;6.40;99.90;;;;;;4995608;28;20236;-71
2024/02/24 04:53:16;;;;;;;1.83;1.10;;;6.40;99.90;;;;;;4987808;28;20553;-72
2024/02/24 04:55:41;;;;;;;3.33;0.90;;;6.40;99.90;;;;;;4975970;28;20176;-72
2024/02/24 04:58:07;;;;;;;1.47;1.10;;;6.40;99.90;;;;;;4976121;28;20175;-72
2024/02/24 05:00:32;;;;;;;1.37;1.00;;;6.50;99.90;;;;;;4975822;28;20258;-71
2024/02/24 05:02:58;;;;;;;1.63;1.10;;;6.40;99.90;;;;;;4980267;28;20279;-71
2024/02/24 05:05:24;;;;;;;0.90;0.80;;;6.40;99.90;;;;;;4994995;28;20171;-71
2024/02/24 05:07:49;;;;;;;1.87;1.20;;;6.40;99.90;;;;;;4994949;28;20637;-72
2024/02/24 05:10:15;;;;;;;1.57;1.00;;;6.50;99.90;;;;;;4993687;28;20654;-70
2024/02/24 05:12:47;;;;;;;2.43;0.93;;;6.40;99.90;;;;;;4991049;28;20314;-71
2024/02/24 05:15:18;;;;;;;1.47;1.20;;;6.50;99.90;;;;;;4974163;28;20179;-72
2024/02/24 05:17:44;;;;;;;2.70;1.20;;;6.40;99.90;;;;;;4975689;28;20458;-72
2024/02/24 05:20:12;;;;;;;1.80;0.90;;;6.30;99.90;;;;;;4975462;28;20403;-73
2024/02/24 05:22:38;;;;;;;2.50;0.93;;;6.40;99.90;;;;;;4976168;28;20448;-71
2024/02/24 05:25:05;;;;;;;1.47;1.20;;;6.40;99.90;;;;;;4994964;28;20503;-70
2024/02/24 05:27:31;;;;;;;1.80;1.40;;;6.40;99.90;;;;;;4994639;28;20449;-71
2024/02/24 05:29:57;;;;;;;1.40;0.93;;;6.30;99.90;;;;;;4994783;28;20410;-71
2024/02/24 05:32:23;;;;;;;1.60;1.00;;;6.40;99.90;;;;;;5008822;23;20230;-73
2024/02/24 05:34:48;;;;;;;2.80;1.30;;;6.40;99.90;;;;;;4997427;28;20233;-72
2024/02/24 05:37:15;;;;;;;1.97;1.37;;;6.30;99.90;;;;;;4995391;28;20409;-72
2024/02/24 05:39:41;;;;;;;1.57;1.20;;;6.30;99.90;;;;;;4995021;28;20646;-72
2024/02/24 05:42:06;;;;;;;1.67;1.07;;;6.20;99.90;;;;;;4994574;28;20433;-73
2024/02/24 05:44:32;;;;;;;3.03;1.40;;;6.20;99.90;;;;;;4994642;28;20169;-72
2024/02/24 05:46:57;;;;;;;1.40;1.10;;;6.20;99.90;;;;;;4984697;28;20236;-72
2024/02/24 05:49:23;;;;;;;1.10;1.00;;;6.10;99.90;;;;;;4975352;28;20214;-73
2024/02/24 05:51:49;;;;;;;2.03;1.00;;;6.20;99.90;;;;;;4975010;28;20293;-73
2024/02/24 05:54:14;;;;;;;4.83;2.63;;;6.20;99.90;;;;;;4989227;28;20745;-72
2024/02/24 05:56:41;;;;;;;2.63;1.30;;;6.20;99.90;;;;;;4994485;28;20696;-71
2024/02/24 05:59:07;;;;;;;1.60;1.50;;;6.20;99.90;;;;;;4994702;28;20178;-71
2024/02/24 06:01:34;;;;;;;2.40;1.40;;;6.30;99.90;;;;;;5004411;28;20437;-71
2024/02/24 06:04:00;;;;;;;1.13;1.03;;;6.30;99.90;;;;;;4999244;28;20419;-72
2024/02/24 06:06:27;;;;;;;1.30;1.20;;;6.30;99.90;;;;;;4986828;28;20534;-72
2024/02/24 06:08:54;;;;;;;1.63;0.90;;;6.30;99.90;;;;;;4990166;28;20171;-70
2024/02/24 06:11:19;;;;;;;1.30;1.20;;;6.40;99.90;;;;;;4977851;28;20430;-72
2024/02/24 06:13:48;;;;;;;1.10;1.00;;;6.30;99.90;;;;;;4985032;28;20475;-74
2024/02/24 06:16:13;;;;;;;1.10;1.00;;;6.40;99.90;;;;;;4992919;28;20175;-72
2024/02/24 06:18:39;;;;;;;1.67;1.20;;;6.40;99.90;;;;;;4994452;28;20460;-72
2024/02/24 06:21:06;;;;;;;1.63;1.40;;;6.60;99.90;;;;;;4992800;28;20168;-72
2024/02/24 06:23:32;;;;;;;2.00;1.20;;;6.60;99.90;;;;;;4985645;28;20217;-72
2024/02/24 06:25:58;;;;;;;2.47;1.20;;;6.60;99.90;;;;;;4974697;28;20793;-73
2024/02/24 06:28:23;;;;;;;1.33;1.10;;;6.60;99.90;;;;;;4978569;28;20575;-73
2024/02/24 06:30:49;;;;;;;4.63;1.40;;;6.70;99.90;;;;;;4993800;28;20905;-73
2024/02/24 06:33:15;;;;;;;2.57;1.67;;;6.50;99.90;;;;;;4987916;28;20243;-72
2024/02/24 06:35:40;;;;;;;2.13;1.53;;;6.40;99.90;;;;;;4974646;28;20192;-73
2024/02/24 06:38:06;;;;;;;3.10;1.70;;;6.40;99.90;;;;;;4974899;28;20453;-73
2024/02/24 06:40:32;;;;;;;1.53;1.40;;;6.50;99.90;;;;;;4973243;28;20177;-73
2024/02/24 06:42:57;;;;;;;2.37;1.73;;;6.50;99.90;;;;;;4977567;28;20195;-73
2024/02/24 06:45:23;;;;;;;1.77;1.40;;;6.40;99.90;;;;;;4993799;28;20208;-73
2024/02/24 06:47:49;;;;;;;1.90;1.67;;;6.30;99.90;;;;;;4994005;28;20180;-73
2024/02/24 06:50:14;;;;;;;2.20;1.70;;;6.30;99.90;;;;;;4993538;28;20432;-73
2024/02/24 06:52:40;;;;;;;2.10;1.23;;;6.30;99.90;;;;;;4992584;28;20228;-73
2024/02/24 06:55:06;;;;;;;1.80;1.50;;;6.40;99.90;;;;;;4974358;28;20546;-74
2024/02/24 06:57:31;;;;;;;3.23;1.27;;;6.40;99.90;;;;;;4974211;28;20179;-73
2024/02/24 06:59:57;;;;;;;1.47;1.00;;;6.40;99.90;;;;;;4972841;28;20707;-74
2024/02/24 07:02:22;;;;;;;1.73;1.23;;;6.50;99.90;;;;;;4974264;28;20214;-72
2024/02/24 07:04:49;;;;;;;1.43;1.10;;;6.50;99.90;;;;;;4991940;28;20548;-74
2024/02/24 07:07:16;;;;;;;1.53;1.00;;;6.50;99.90;;;;;;4993503;28;20203;-73
2024/02/24 07:09:41;;;;;;;1.40;1.30;;;6.50;99.90;;;;;;4993870;28;20506;-73
2024/02/24 07:12:07;;;;;;;2.30;1.30;;;6.60;99.90;;;;;;4993578;28;20553;-73
2024/02/24 07:14:34;;;;;;;1.50;1.30;;;6.60;99.90;;;;;;4977822;28;20173;-73
2024/02/24 07:17:00;;;;;;;2.30;1.50;;;6.50;99.90;;;;;;4974033;28;20196;-73
2024/02/24 07:19:26;;;;;;;1.67;1.43;;;6.50;99.90;;;;;;4972944;28;20438;-73
2024/02/24 07:21:51;;;;;;;2.47;1.30;;;6.50;99.90;;;;;;4974132;28;20706;-73
2024/02/24 07:24:17;;;;;;;1.90;1.03;;;6.60;99.90;;;;;;4987345;28;20663;-73
2024/02/24 07:26:44;;;;;;;2.00;1.10;;;6.50;99.90;;;;;;4993314;28;20198;-72
2024/02/24 07:29:10;;;;;;;1.47;1.03;;;6.40;99.90;;;;;;4993730;28;20635;-73
2024/02/24 07:31:36;;;;;;;1.00;0.80;;;6.40;99.90;;;;;;4992505;28;20489;-73
2024/02/24 07:34:02;;;;;;;2.73;0.93;;;6.40;99.90;;;;;;4983213;28;20190;-73
2024/02/24 07:36:29;;;;;;;0.90;0.83;;;6.50;99.90;;;;;;4977812;28;20411;-73
2024/02/24 07:38:56;;;;;;;1.00;0.80;;;6.60;99.90;;;;;;4977547;28;20407;-73
2024/02/24 07:41:21;;;;;;;0.90;0.80;;;6.60;99.90;;;;;;4977603;28;20478;-73
2024/02/24 07:43:47;;;;;;;1.10;0.80;;;6.70;99.90;;;;;;4985428;28;20441;-73
2024/02/24 07:46:27;;;;;;;1.67;0.80;;;6.60;99.90;;;;;;4980130;28;20187;-73
2024/02/24 07:48:54;;;;;;;1.07;0.70;;;6.60;99.90;;;;;;4977844;28;20164;-73
2024/02/24 07:51:19;;;;;;;0.73;0.60;;;6.70;99.90;;;;;;4978196;28;20450;-73
2024/02/24 07:53:45;;;;;;;1.00;0.77;;;6.70;99.90;;;;;;4986164;28;20453;-73
2024/02/24 07:56:10;;;;;;;1.27;0.87;;;6.70;99.90;;;;;;4997346;28;20167;-73
2024/02/24 07:58:36;;;;;;;1.43;0.80;;;6.80;99.90;;;;;;4997179;28;20195;-70
2024/02/24 08:01:01;;;;;;;1.10;0.70;;;6.90;99.90;;;;;;4996813;28;20181;-71
2024/02/24 08:03:27;;;;;;;1.10;0.80;;;6.90;99.90;;;;;;4990247;28;20252;-71
2024/02/24 08:05:53;;;;;;;1.40;0.80;;;7.10;99.90;;;;;;4977365;28;20188;-71
2024/02/24 08:08:19;;;;;;;1.10;0.73;;;7.00;99.90;;;;;;4977400;28;20777;-71
2024/02/24 08:10:45;;;;;;;1.00;0.73;;;7.10;99.90;;;;;;4977266;28;20172;-71
2024/02/24 08:13:10;;;;;;;2.27;0.77;;;7.20;99.90;;;;;;4980829;28;20442;-71
2024/02/24 08:15:36;;;;;;;1.93;0.70;;;7.00;99.90;;;;;;4996417;28;20204;-71
2024/02/24 08:18:02;;;;;;;1.87;0.97;;;6.80;99.90;;;;;;4996235;28;20510;-71
2024/02/24 08:20:27;;;;;;;0.77;0.50;;;6.90;99.90;;;;;;4996203;28;20590;-71
2024/02/24 08:22:53;;;;;;;1.20;0.80;;;7.00;99.90;;;;;;4994709;28;20819;-70
2024/02/24 08:25:18;;;;;;;0.80;0.60;;;6.90;99.90;;;;;;4976774;28;20257;-70
2024/02/24 08:27:44;;;;;;;1.70;1.00;;;6.80;99.90;;;;;;4993445;28;20194;-71
2024/02/24 08:30:10;;;;;;;0.90;0.73;;;6.70;99.90;;;;;;4996419;28;20195;-70
2024/02/24 08:32:36;;;;;;;1.50;0.80;;;6.60;99.90;;;;;;4995986;28;20247;-71
2024/02/24 08:35:01;;;;;;;1.00;0.60;;;6.80;99.90;;;;;;4977759;28;20407;-71
2024/02/24 08:37:27;;;;;;;0.97;0.67;;;6.80;99.90;;;;;;4976596;28;20643;-71
2024/02/24 08:39:53;;;;;;;1.30;0.70;;;7.00;99.90;;;;;;4976921;28;20199;-70
2024/02/24 08:42:18;;;;;;;1.50;0.70;;;6.90;99.90;;;;;;4976501;28;20543;-70
2024/02/24 08:44:44;;;;;;;0.90;0.60;;;6.90;99.90;;;;;;4991990;28;20174;-70
2024/02/24 08:47:09;;;;;;;1.20;0.70;;;7.00;99.90;;;;;;4995789;28;20211;-70
2024/02/24 08:49:35;;;;;;;0.87;0.70;;;7.10;99.90;;;;;;4995897;28;20175;-70
2024/02/24 08:52:01;;;;;;;1.87;0.70;;;7.10;99.90;;;;;;4995522;28;20219;-70
2024/02/24 08:54:26;;;;;;;1.20;0.60;;;7.10;99.90;;;;;;4982226;28;20205;-70
2024/02/24 08:56:52;;;;;;;1.40;1.00;;;7.20;99.90;;;;;;4976186;28;20224;-70
2024/02/24 08:59:17;;;;;;;1.60;0.93;;;7.20;99.90;;;;;;4976139;28;20175;-70
2024/02/24 09:01:43;;;;;;;0.93;0.60;;;7.40;99.90;;;;;;4976163;28;20274;-69
2024/02/24 09:04:10;;;;;;;5.13;0.80;;;7.40;99.90;;;;;;4987103;28;20176;-70
2024/02/24 09:06:35;;;;;;;1.20;0.73;;;7.40;99.90;;;;;;4995476;28;20731;-69
2024/02/24 09:09:04;;;;;;;1.00;0.70;;;7.50;99.90;;;;;;4995602;28;20494;-70
2024/02/24 09:11:30;;;;;;;0.93;0.57;;;7.40;99.90;;;;;;4994193;28;20218;-71
2024/02/24 09:13:56;;;;;;;1.80;0.70;;;7.50;99.90;;;;;;4986554;28;20613;-71
2024/02/24 09:16:22;;;;;;;1.17;0.67;;;7.60;99.90;;;;;;4975982;28;21039;-71
2024/02/24 09:18:48;;;;;;;0.90;0.60;;;7.80;99.90;;;;;;4976066;28;20499;-71
2024/02/24 09:21:13;;;;;;;1.63;0.73;;;7.80;99.90;;;;;;4975802;28;20165;-70
2024/02/24 09:23:39;;;;;;;0.93;0.60;;;8.00;99.90;;;;;;4982148;28;20594;-71
2024/02/24 09:26:05;;;;;;;1.10;0.80;;;8.10;99.90;;;;;;4993744;28;20180;-70
2024/02/24 09:28:30;;;;;;;0.90;0.70;;;8.10;99.90;;;;;;4995083;28;20173;-71
2024/02/24 09:30:56;;;;;;;0.90;0.70;;;8.30;99.90;;;;;;4995318;28;20202;-70
2024/02/24 09:33:21;;;;;;;1.53;0.57;;;8.30;99.90;;;;;;4990106;28;20197;-70
2024/02/24 09:35:47;;;;;;;1.00;0.70;;;8.50;99.90;;;;;;4975396;28;20707;-71
2024/02/24 09:38:13;;;;;;;1.33;0.80;;;8.60;99.90;;;;;;4975422;28;20648;-70
2024/02/24 09:40:38;;;;;;;0.90;0.77;;;9.00;99.90;;;;;;4975704;28;20186;-71
2024/02/24 09:43:05;;;;;;;1.87;0.70;;;9.10;99.90;;;;;;4976533;28;20203;-70
2024/02/24 09:45:35;;;;;;;1.03;0.70;;;9.00;99.90;;;;;;4994940;28;20170;-71
2024/02/24 09:48:01;;;;;;;1.30;0.70;;;9.20;99.90;;;;;;4994916;28;20836;-71
2024/02/24 09:50:27;;;;;;;2.20;0.70;;;9.00;99.90;;;;;;4984736;28;20420;-71
2024/02/24 09:52:53;;;;;;;1.40;0.90;;;9.00;99.90;;;;;;4975007;28;20457;-71
2024/02/24 09:55:19;;;;;;;1.03;0.70;;;9.30;99.90;;;;;;4993111;28;20430;-70
2024/02/24 09:57:45;;;;;;;1.10;0.70;;;9.40;99.90;;;;;;4994125;28;20665;-71
2024/02/24 10:00:12;;;;;;;1.20;0.70;;;9.40;99.90;;;;;;4994556;28;20415;-70
2024/02/24 10:02:38;;;;;;;1.10;0.70;;;9.60;99.90;;;;;;4993213;28;20433;-70
2024/02/24 10:05:04;;;;;;;1.10;0.60;;;9.40;99.90;;;;;;4977010;28;20408;-70
2024/02/24 10:07:34;;;;;;;1.10;0.93;;;9.40;99.90;;;;;;4975024;28;20417;-70
2024/02/24 10:10:00;;;;;;;1.57;0.77;;;9.40;99.90;;;;;;4975175;28;20413;-70
2024/02/24 10:12:26;;;;;;;0.87;0.60;;;9.50;99.90;;;;;;4974679;28;20862;-71
2024/02/24 10:14:53;;;;;;;1.30;0.80;;;9.50;99.90;;;;;;4990320;28;20162;-71
2024/02/24 10:17:19;;;;;;;1.00;0.87;;;9.50;99.90;;;;;;4993199;28;20172;-71
2024/02/24 10:19:46;;;;;;;1.67;0.60;;;9.70;99.90;;;;;;4994377;28;20811;-70
2024/02/24 10:22:16;;;;;;;1.10;0.70;;;9.80;99.90;;;;;;4986173;28;20283;-70
2024/02/24 10:24:42;;;;;;;0.90;0.60;;;9.90;99.90;;;;;;4989219;28;20798;-71
2024/02/24 10:27:09;;;;;;;1.43;0.70;;;10.00;99.90;;;;;;4994337;28;20170;-70
2024/02/24 10:29:35;;;;;;;1.47;0.70;;;10.20;99.90;;;;;;4994491;28;20179;-71
2024/02/24 10:32:01;;;;;;;1.23;0.60;;;10.10;99.90;;;;;;4993860;28;20470;-72
2024/02/24 10:34:28;;;;;;;0.80;0.60;;;10.10;99.90;;;;;;4982031;28;20470;-72
2024/02/24 10:36:57;;;;;;;2.27;0.60;;;10.20;99.90;;;;;;4975005;28;20172;-72
2024/02/24 10:39:25;;;;;;;0.70;0.43;;;10.40;99.90;;;;;;4975280;28;20408;-72
2024/02/24 10:41:52;;;;;;;0.90;0.60;;;10.40;99.90;;;;;;4973784;28;20958;-73
2024/02/24 10:44:20;;;;;;;1.53;0.50;;;10.50;99.20;;;;;;4985369;28;20412;-73
2024/02/24 10:46:48;;;;;;;1.63;0.60;;;10.30;98.50;;;;;;4994484;28;20415;-73
2024/02/24 10:49:13;;;;;;;0.90;0.60;;;10.30;99.10;;;;;;4994389;28;20458;-73
2024/02/24 10:51:41;;;;;;;2.50;0.60;;;10.50;98.80;;;;;;4993928;28;20849;-73
2024/02/24 10:54:12;;;;;;;6.77;0.80;;;10.50;98.60;;;;;;4984839;28;20177;-73
2024/02/24 10:56:39;;;;;;;1.43;0.70;;;10.40;98.50;;;;;;4974754;28;20382;-73
2024/02/24 10:59:09;;;;;;;1.00;0.60;;;10.60;99.30;;;;;;4974487;28;20405;-73
2024/02/24 11:01:47;;;;;;;1.73;0.50;;;10.80;99.40;;;;;;4974832;28;20435;-72
2024/02/24 11:04:15;;;;;;;3.10;1.10;;;10.90;97.80;;;;;;4983972;28;20400;-72
2024/02/24 11:06:44;;;;;;;0.80;0.50;;;10.70;98.50;;;;;;4993590;28;20854;-73
2024/02/24 11:09:23;;;;;;;1.00;0.70;;;10.60;97.50;;;;;;4995300;28;20464;-72
2024/02/24 11:11:48;;;;;;;2.03;0.77;;;10.60;97.40;;;;;;4997726;28;20964;-72
2024/02/24 11:14:20;;;;;;;0.80;0.57;;;10.60;96.60;;;;;;4988204;28;20436;-73
2024/02/24 11:16:46;;;;;;;1.83;0.70;;;11.00;97.40;;;;;;4978140;28;20165;-73
2024/02/24 11:19:12;;;;;;;2.03;0.70;;;11.50;96.60;;;;;;4976769;28;20420;-72
2024/02/24 11:22:00;;;;;;;1.20;0.70;;;12.20;96.20;;;;;;4978593;28;20195;-72
2024/02/24 11:24:33;;;;;;;0.80;0.50;;;12.50;94.50;;;;;;4989395;28;20222;-73
2024/02/24 11:27:00;;;;;;;1.20;0.70;;;12.50;94.20;;;;;;4997555;28;20452;-72
2024/02/24 11:29:27;;;;;;;0.70;0.40;;;13.40;93.20;;;;;;4997134;28;20400;-73
2024/02/24 11:32:08;;;;;;;0.80;0.50;;;14.50;91.30;;;;;;4998145;28;20457;-72
2024/02/24 11:34:36;;;;;;;1.20;0.70;;;13.90;88.80;;;;;;4985618;28;20407;-72
2024/02/24 11:37:02;;;;;;;1.57;1.07;;;12.90;90.30;;;;;;4977997;28;20443;-72
2024/02/24 11:39:29;;;;;;;1.97;0.70;;;12.80;91.40;;;;;;4978034;28;20930;-72
2024/02/24 11:41:56;;;;;;;1.00;0.60;;;12.60;91.10;;;;;;4978208;28;20431;-73
2024/02/24 11:44:22;;;;;;;1.37;0.60;;;12.30;92.00;;;;;;4988634;28;20477;-73
2024/02/24 11:46:48;;;;;;;1.00;0.60;;;12.50;92.20;;;;;;4998386;28;20490;-74
2024/02/24 11:49:14;;;;;;;1.73;0.60;;;12.40;92.20;;;;;;4997646;28;20412;-72
2024/02/24 11:51:40;;;;;;;1.73;0.60;;;12.60;91.50;;;;;;4995572;28;20491;-72
2024/02/24 11:54:07;;;;;;;0.80;0.60;;;12.30;92.00;;;;;;4997678;28;20510;-73
2024/02/24 11:56:35;;;;;;;1.80;0.70;;;12.20;92.90;;;;;;4998799;28;20797;-73
2024/02/24 11:59:01;;;;;;;1.73;0.70;;;12.50;92.70;;;;;;4997754;28;20414;-72
2024/02/24 12:01:27;;;;;;;3.20;0.57;;;12.50;92.10;;;;;;4996935;28;20927;-73
2024/02/24 12:03:53;;;;;;;1.20;0.83;;;12.30;92.00;;;;;;4997131;28;20636;-73
2024/02/24 12:06:20;;;;;;;1.47;0.77;;;12.30;92.20;;;;;;4996906;28;20418;-72
2024/02/24 12:08:47;;;;;;;0.90;0.80;;;12.10;92.40;;;;;;4996516;28;20609;-72
2024/02/24 12:11:13;;;;;;;1.00;0.57;;;12.00;92.90;;;;;;4996498;28;20409;-72
2024/02/24 12:13:39;;;;;;;1.10;0.70;;;12.70;91.80;;;;;;4982750;28;20760;-72
2024/02/24 12:16:05;;;;;;;1.27;0.60;;;13.40;90.10;;;;;;4976865;28;20414;-72
2024/02/24 12:18:31;;;;;;;1.00;0.70;;;13.50;89.20;;;;;;4977078;28;20544;-72
2024/02/24 12:20:56;;;;;;;1.43;0.70;;;13.40;88.80;;;;;;4985712;28;20442;-72
2024/02/24 12:23:22;;;;;;;1.10;0.60;;;13.00;89.30;;;;;;4985004;28;20634;-72
2024/02/24 12:25:49;;;;;;;1.43;0.60;;;12.80;89.10;;;;;;4976771;28;20664;-72
2024/02/24 12:28:16;;;;;;;1.23;0.63;;;12.40;89.20;;;;;;4976881;28;20420;-72
2024/02/24 12:30:44;;;;;;;1.00;0.60;;;12.10;90.40;;;;;;4976792;28;20785;-72
2024/02/24 12:33:14;;;;;;;1.00;0.70;;;11.80;90.80;;;;;;4985863;28;20473;-72
2024/02/24 12:35:40;;;;;;;2.00;0.70;;;12.00;91.10;;;;;;4996049;28;20782;-72
2024/02/24 12:38:08;;;;;;;1.33;0.80;;;12.60;92.00;;;;;;4996026;28;20414;-72
2024/02/24 12:40:35;;;;;;;1.40;0.60;;;12.70;90.20;;;;;;4996084;28;20450;-72
2024/02/24 12:43:02;;;;;;;0.90;0.60;;;12.20;90.40;;;;;;4987888;28;20443;-72
2024/02/24 12:45:28;;;;;;;1.00;0.70;;;12.10;90.20;;;;;;4976559;28;20413;-73
2024/02/24 12:47:55;;;;;;;1.20;0.53;;;12.70;91.10;;;;;;4976435;28;20408;-73
2024/02/24 12:50:25;;;;;;;1.20;0.70;;;13.20;90.20;;;;;;4976395;28;20410;-73